Time;durP1;ratioP1;P1;durP2;ratioP2;P2;SDS_P1;SDS_P2;PMS_P1;PMS_P2;Temp;Humidity;BMP_temperature;BMP_pressure;BME280_temperature;BME280_humidity;BME280_pressure;Samples;Min_cycle;Max_cycle;Signal;HPM_P1;HPM_P2
2021/09/13 00:02:07;;;;;;;8.27;5.40;;;15.60;82.60;;;;;;5094673;28;20017;-67
2021/09/13 00:04:32;;;;;;;7.17;4.90;;;15.70;82.70;;;;;;5084425;28;20017;-67
2021/09/13 00:06:58;;;;;;;6.10;5.20;;;15.70;82.40;;;;;;5085600;28;20540;-66
2021/09/13 00:09:24;;;;;;;7.40;5.60;;;15.70;82.30;;;;;;5085529;28;20040;-66
2021/09/13 00:11:51;;;;;;;6.27;4.80;;;15.60;82.40;;;;;;5084357;28;20021;-67
2021/09/13 00:14:17;;;;;;;7.53;5.72;;;15.50;82.80;;;;;;5085174;28;20024;-67
2021/09/13 00:16:42;;;;;;;8.37;5.17;;;15.40;83.50;;;;;;5084332;28;20044;-67
2021/09/13 00:19:08;;;;;;;8.40;5.57;;;15.40;83.20;;;;;;5084242;28;20075;-66
2021/09/13 00:21:34;;;;;;;9.13;4.63;;;15.40;83.00;;;;;;5085449;28;20067;-68
2021/09/13 00:24:00;;;;;;;8.17;4.93;;;15.50;82.60;;;;;;5084890;28;20465;-67
2021/09/13 00:26:26;;;;;;;9.97;5.63;;;15.40;82.80;;;;;;5085249;28;20032;-67
2021/09/13 00:28:51;;;;;;;14.50;6.37;;;15.40;83.20;;;;;;5083928;28;20021;-68
2021/09/13 00:31:17;;;;;;;8.77;5.17;;;15.30;83.40;;;;;;5085130;28;20214;-67
2021/09/13 00:33:43;;;;;;;12.60;5.93;;;15.30;83.60;;;;;;5084469;28;20024;-67
2021/09/13 00:36:09;;;;;;;7.73;5.33;;;15.20;83.50;;;;;;5085009;28;20074;-67
2021/09/13 00:38:35;;;;;;;8.17;4.97;;;15.20;83.90;;;;;;5084983;28;20028;-67
2021/09/13 00:41:01;;;;;;;6.60;5.47;;;15.10;83.70;;;;;;5084961;28;20050;-67
2021/09/13 00:43:27;;;;;;;9.20;4.70;;;15.20;84.00;;;;;;5084422;28;20088;-67
2021/09/13 00:45:53;;;;;;;6.53;5.40;;;15.20;84.00;;;;;;5084827;28;20205;-66
2021/09/13 00:48:19;;;;;;;7.53;5.67;;;15.10;84.00;;;;;;5084518;28;20350;-66
2021/09/13 00:50:45;;;;;;;6.00;4.70;;;15.10;84.20;;;;;;5084785;28;20016;-68
2021/09/13 00:53:10;;;;;;;6.67;5.07;;;15.10;84.00;;;;;;5083355;28;20033;-67
2021/09/13 00:55:36;;;;;;;9.27;5.63;;;15.10;84.10;;;;;;5082757;28;20088;-67
2021/09/13 00:58:02;;;;;;;7.17;4.63;;;15.10;83.90;;;;;;5084646;28;20020;-67
2021/09/13 01:00:28;;;;;;;8.03;5.77;;;15.20;83.90;;;;;;5084637;28;20025;-66
2021/09/13 01:02:54;;;;;;;10.27;5.57;;;15.20;83.60;;;;;;5083044;28;20208;-67
2021/09/13 01:05:19;;;;;;;6.93;4.97;;;15.00;83.90;;;;;;5084482;28;20028;-66
2021/09/13 01:07:45;;;;;;;8.87;5.37;;;15.00;83.90;;;;;;5084450;28;20043;-67
2021/09/13 01:10:11;;;;;;;7.73;5.13;;;15.00;83.90;;;;;;5083365;28;20051;-67
2021/09/13 01:12:37;;;;;;;6.47;5.57;;;15.00;83.70;;;;;;5084168;28;20062;-67
2021/09/13 01:15:04;;;;;;;6.50;5.70;;;14.90;83.60;;;;;;5083026;28;20135;-67
2021/09/13 01:17:30;;;;;;;7.55;5.20;;;14.90;83.90;;;;;;5083091;28;20027;-67
2021/09/13 01:19:56;;;;;;;6.73;5.47;;;14.80;84.00;;;;;;5084277;28;20335;-66
2021/09/13 01:22:21;;;;;;;10.07;5.37;;;14.90;83.80;;;;;;5083768;28;20084;-67
2021/09/13 01:24:47;;;;;;;7.63;5.33;;;14.90;84.00;;;;;;5066331;28;20307;-67
2021/09/13 01:27:13;;;;;;;7.47;5.63;;;14.80;83.90;;;;;;5084140;28;20027;-67
2021/09/13 01:29:39;;;;;;;6.60;5.30;;;14.70;84.20;;;;;;5066103;28;20029;-67
2021/09/13 01:32:06;;;;;;;7.67;5.40;;;14.80;84.10;;;;;;5083684;28;20313;-67
2021/09/13 01:34:32;;;;;;;8.65;5.07;;;14.70;84.30;;;;;;5082705;28;20028;-67
2021/09/13 01:36:57;;;;;;;9.30;5.40;;;14.60;85.00;;;;;;5083811;28;20120;-67
2021/09/13 01:39:23;;;;;;;8.83;5.67;;;14.60;84.70;;;;;;5083837;28;20032;-67
2021/09/13 01:41:49;;;;;;;7.07;5.60;;;14.60;84.40;;;;;;5083496;28;20040;-66
2021/09/13 01:44:15;;;;;;;8.70;5.73;;;14.60;84.80;;;;;;5083304;28;20032;-67
2021/09/13 01:46:41;;;;;;;7.23;5.60;;;14.60;85.00;;;;;;5083586;28;20027;-67
2021/09/13 01:49:08;;;;;;;6.20;4.93;;;14.40;85.60;;;;;;5083593;28;20259;-67
2021/09/13 01:51:34;;;;;;;6.72;5.22;;;14.40;86.30;;;;;;5065043;28;20023;-67
2021/09/13 01:54:00;;;;;;;7.00;5.18;;;14.40;85.80;;;;;;5082110;28;20039;-67
2021/09/13 01:56:26;;;;;;;6.67;5.50;;;14.50;85.70;;;;;;5082044;28;20087;-67
2021/09/13 01:58:52;;;;;;;6.50;5.13;;;14.40;86.20;;;;;;5065530;28;20305;-67
2021/09/13 02:01:19;;;;;;;7.90;5.77;;;14.40;86.10;;;;;;5083307;28;20243;-67
2021/09/13 02:03:45;;;;;;;7.82;5.80;;;14.40;86.20;;;;;;5081725;28;20087;-66
2021/09/13 02:06:11;;;;;;;6.87;5.00;;;14.40;86.40;;;;;;5083156;28;20031;-66
2021/09/13 02:08:36;;;;;;;8.07;6.57;;;14.40;86.50;;;;;;5082591;28;20106;-67
2021/09/13 02:11:04;;;;;;;9.17;5.43;;;14.30;86.50;;;;;;5082081;28;20039;-67
2021/09/13 02:13:31;;;;;;;8.25;5.90;;;14.40;86.50;;;;;;5082603;28;20093;-67
2021/09/13 02:15:57;;;;;;;7.93;6.05;;;14.30;86.50;;;;;;5081802;28;20381;-67
2021/09/13 02:18:22;;;;;;;8.20;6.70;;;14.30;86.30;;;;;;5083033;28;20099;-67
2021/09/13 02:20:48;;;;;;;9.50;6.67;;;14.40;86.20;;;;;;5083018;28;20582;-67
2021/09/13 02:23:14;;;;;;;8.33;6.03;;;14.40;86.10;;;;;;5081491;28;20134;-67
2021/09/13 02:25:40;;;;;;;7.70;5.60;;;14.30;86.30;;;;;;5082846;28;20027;-67
2021/09/13 02:28:06;;;;;;;8.63;6.47;;;14.30;86.00;;;;;;5082844;28;20036;-67
2021/09/13 02:30:31;;;;;;;9.30;6.83;;;14.30;86.20;;;;;;5082462;28;20196;-67
2021/09/13 02:32:57;;;;;;;9.43;6.03;;;14.30;85.90;;;;;;5081669;28;20040;-67
2021/09/13 02:35:23;;;;;;;9.33;6.17;;;14.30;86.10;;;;;;5082394;28;20037;-67
2021/09/13 02:37:49;;;;;;;9.37;6.10;;;14.30;86.00;;;;;;5082770;28;20033;-67
2021/09/13 02:40:14;;;;;;;8.87;6.60;;;14.30;85.90;;;;;;5082709;28;20029;-67
2021/09/13 02:42:40;;;;;;;11.57;6.75;;;14.20;86.00;;;;;;5082246;28;20242;-67
2021/09/13 02:45:07;;;;;;;8.75;6.90;;;14.20;86.00;;;;;;5082395;28;20024;-66
2021/09/13 02:47:33;;;;;;;7.65;6.03;;;14.20;86.10;;;;;;5082538;28;20062;-67
2021/09/13 02:49:59;;;;;;;8.67;6.37;;;14.20;86.20;;;;;;5064880;28;20254;-66
2021/09/13 02:52:25;;;;;;;11.87;7.33;;;14.20;86.50;;;;;;5082230;28;20107;-67
2021/09/13 02:54:50;;;;;;;9.73;6.70;;;14.20;86.20;;;;;;5082405;28;20020;-66
2021/09/13 02:57:16;;;;;;;7.27;5.77;;;14.20;86.20;;;;;;5081097;28;20319;-66
2021/09/13 02:59:44;;;;;;;7.07;5.83;;;14.10;86.00;;;;;;5082359;28;20051;-66
2021/09/13 03:02:10;;;;;;;10.32;6.57;;;14.10;86.20;;;;;;5082103;28;20121;-67
2021/09/13 03:04:35;;;;;;;8.30;5.97;;;14.10;86.10;;;;;;5082267;28;20034;-67
2021/09/13 03:07:02;;;;;;;10.77;6.17;;;14.10;86.10;;;;;;5082107;28;20024;-67
2021/09/13 03:09:28;;;;;;;;;;;14.10;85.90;;;;;;5082680;28;20028;-66
2021/09/13 03:11:54;;;;;;;8.10;5.35;;;13.90;86.30;;;;;;5081875;28;19919;-67
2021/09/13 03:14:20;;;;;;;7.03;5.13;;;13.90;86.40;;;;;;5081995;28;20529;-67
2021/09/13 03:16:46;;;;;;;8.60;6.00;;;13.90;86.40;;;;;;5081023;28;20036;-67
2021/09/13 03:19:12;;;;;;;8.47;6.23;;;13.90;86.90;;;;;;5080901;28;20047;-67
2021/09/13 03:21:37;;;;;;;7.83;6.77;;;13.90;86.70;;;;;;5081338;28;20223;-67
2021/09/13 03:24:04;;;;;;;8.63;6.33;;;13.90;86.60;;;;;;5081548;28;20084;-67
2021/09/13 03:26:30;;;;;;;7.13;5.43;;;13.90;86.80;;;;;;5082057;28;20342;-67
2021/09/13 03:28:56;;;;;;;8.70;6.17;;;13.90;86.60;;;;;;5082115;28;20028;-66
2021/09/13 03:31:22;;;;;;;7.35;5.13;;;13.90;86.50;;;;;;5082060;28;20323;-67
2021/09/13 03:33:48;;;;;;;8.13;5.63;;;13.80;86.30;;;;;;5081686;28;20282;-67
2021/09/13 03:36:14;;;;;;;9.75;6.30;;;13.80;86.30;;;;;;5082071;28;20036;-67
2021/09/13 03:38:40;;;;;;;9.43;6.32;;;13.70;86.60;;;;;;5081746;28;20024;-67
2021/09/13 03:41:05;;;;;;;8.20;6.30;;;13.50;87.60;;;;;;5081925;28;20021;-67
2021/09/13 03:43:31;;;;;;;6.70;5.63;;;13.50;87.70;;;;;;5081503;28;20021;-67
2021/09/13 03:45:57;;;;;;;9.32;5.85;;;13.50;88.00;;;;;;5081808;28;20017;-66
2021/09/13 03:48:23;;;;;;;9.73;6.47;;;13.50;87.50;;;;;;5081936;28;20087;-67
2021/09/13 03:50:49;;;;;;;7.95;5.60;;;13.50;88.00;;;;;;5081806;28;20028;-66
2021/09/13 03:53:15;;;;;;;7.77;6.00;;;13.50;87.40;;;;;;5081312;28;20216;-67
2021/09/13 03:55:41;;;;;;;7.13;6.00;;;13.50;87.50;;;;;;5081696;28;20027;-67
2021/09/13 03:58:07;;;;;;;8.65;6.28;;;13.50;87.50;;;;;;5081839;28;20024;-67
2021/09/13 04:00:33;;;;;;;7.93;5.70;;;13.50;87.50;;;;;;5081796;28;20028;-67
2021/09/13 04:03:00;;;;;;;8.38;6.40;;;13.40;87.60;;;;;;5080422;28;20262;-67
2021/09/13 04:05:26;;;;;;;8.07;6.10;;;13.40;87.30;;;;;;5080520;28;20319;-67
2021/09/13 04:12:45;;;;;;;10.60;5.68;;;13.40;87.20;;;;;;5063777;28;20256;-67
2021/09/13 04:15:11;;;;;;;7.90;5.67;;;13.40;87.20;;;;;;5081506;28;20035;-67
2021/09/13 04:17:37;;;;;;;8.65;5.45;;;13.40;87.00;;;;;;5080816;28;20029;-67
2021/09/13 04:20:03;;;;;;;8.63;5.80;;;13.40;87.10;;;;;;5081591;28;20032;-67
2021/09/13 04:22:29;;;;;;;8.07;6.30;;;13.40;87.30;;;;;;5079864;28;20036;-67
2021/09/13 04:24:55;;;;;;;8.48;5.75;;;13.40;87.40;;;;;;5081509;28;20020;-67
2021/09/13 04:27:21;;;;;;;8.30;6.00;;;13.30;87.30;;;;;;5080528;28;20313;-67
2021/09/13 04:29:47;;;;;;;11.13;6.15;;;13.20;87.50;;;;;;5080722;28;20023;-67
2021/09/13 04:32:13;;;;;;;10.17;6.30;;;13.20;87.40;;;;;;5084945;28;20286;-67
2021/09/13 04:34:38;;;;;;;9.68;6.38;;;13.20;87.30;;;;;;5084974;28;20024;-67
2021/09/13 04:37:04;;;;;;;8.67;5.97;;;13.30;87.30;;;;;;5083763;28;20048;-67
2021/09/13 04:39:30;;;;;;;8.83;5.37;;;13.20;87.00;;;;;;5084718;28;20020;-67
2021/09/13 04:41:56;;;;;;;7.88;5.65;;;13.20;86.80;;;;;;5084736;28;20375;-67
2021/09/13 04:44:21;;;;;;;10.97;6.40;;;13.10;86.90;;;;;;5084712;28;20044;-67
2021/09/13 04:46:47;;;;;;;8.70;6.25;;;13.00;87.00;;;;;;5084877;28;20268;-67
2021/09/13 04:49:13;;;;;;;7.77;5.63;;;13.10;87.10;;;;;;5084860;28;20028;-67
2021/09/13 04:51:39;;;;;;;9.50;6.07;;;13.10;87.20;;;;;;5084691;28;20020;-67
2021/09/13 04:54:05;;;;;;;9.88;5.97;;;13.20;86.80;;;;;;5084197;28;20083;-66
2021/09/13 04:56:30;;;;;;;7.05;5.72;;;13.10;86.40;;;;;;5066416;28;20043;-67
2021/09/13 04:58:56;;;;;;;8.82;5.80;;;13.10;86.60;;;;;;5082325;28;20512;-67
2021/09/13 05:01:22;;;;;;;9.40;6.50;;;13.10;86.70;;;;;;5084454;28;20024;-67
2021/09/13 05:03:49;;;;;;;8.53;6.67;;;13.10;86.80;;;;;;5082309;28;20029;-67
2021/09/13 05:06:14;;;;;;;;;;;13.10;87.30;;;;;;5084814;28;20027;-67
2021/09/13 05:08:40;;;;;;;9.38;5.75;;;13.00;87.30;;;;;;5084460;28;20375;-66
2021/09/13 05:11:06;;;;;;;10.25;5.65;;;13.10;87.30;;;;;;5083268;28;20025;-67
2021/09/13 05:13:32;;;;;;;7.10;5.57;;;13.10;87.30;;;;;;5083553;28;20012;-67
2021/09/13 05:15:58;;;;;;;10.53;6.13;;;13.00;87.40;;;;;;5083938;28;20074;-65
2021/09/13 05:18:24;;;;;;;10.05;6.25;;;13.10;87.50;;;;;;5103860;28;20016;-67
2021/09/13 05:20:50;;;;;;;8.07;5.97;;;13.00;87.50;;;;;;5104289;28;20073;-67
2021/09/13 05:23:15;;;;;;;10.25;6.65;;;13.10;87.60;;;;;;5103823;28;20028;-67
2021/09/13 05:25:41;;;;;;;15.83;6.90;;;13.10;87.40;;;;;;5097280;28;20020;-66
2021/09/13 05:28:07;;;;;;;11.90;6.83;;;13.10;87.50;;;;;;5083956;28;20343;-67
2021/09/13 05:30:33;;;;;;;9.60;6.40;;;13.10;87.50;;;;;;5083997;28;20028;-67
2021/09/13 05:32:58;;;;;;;10.85;6.75;;;13.20;87.90;;;;;;5082657;28;20033;-67
2021/09/13 05:35:24;;;;;;;10.10;6.37;;;13.30;88.20;;;;;;5084182;28;20024;-67
2021/09/13 05:37:50;;;;;;;14.07;7.47;;;13.30;88.40;;;;;;5083932;28;20028;-68
2021/09/13 05:40:16;;;;;;;9.90;6.72;;;13.40;88.00;;;;;;5083841;28;20266;-67
2021/09/13 05:42:41;;;;;;;7.87;6.33;;;13.40;87.40;;;;;;5082138;28;20024;-66
2021/09/13 05:45:08;;;;;;;10.27;6.30;;;13.40;87.20;;;;;;5082480;28;20035;-67
2021/09/13 05:47:34;;;;;;;8.57;6.35;;;13.40;87.30;;;;;;5083903;28;20253;-67
2021/09/13 05:50:00;;;;;;;11.47;7.07;;;13.50;87.80;;;;;;5083601;28;20024;-66
2021/09/13 05:52:25;;;;;;;12.73;6.80;;;13.50;87.70;;;;;;5083256;28;20020;-67
2021/09/13 05:54:51;;;;;;;11.33;6.97;;;13.60;88.00;;;;;;5083537;28;20214;-69
2021/09/13 05:57:17;;;;;;;9.83;7.10;;;13.60;88.10;;;;;;5082826;28;20046;-67
2021/09/13 05:59:43;;;;;;;12.93;7.73;;;13.70;88.10;;;;;;5081313;28;20315;-68
2021/09/13 06:02:10;;;;;;;12.50;6.32;;;13.70;87.90;;;;;;5072501;28;20220;-67
2021/09/13 06:04:37;;;;;;;12.60;7.38;;;13.80;87.50;;;;;;5070627;28;20066;-67
2021/09/13 06:07:04;;;;;;;12.68;6.88;;;13.80;86.70;;;;;;5071566;28;20370;-67
2021/09/13 06:09:30;;;;;;;9.40;6.65;;;13.80;86.30;;;;;;5083090;28;20084;-67
2021/09/13 06:11:56;;;;;;;10.55;6.70;;;13.90;86.40;;;;;;5082461;28;20024;-66
2021/09/13 06:14:22;;;;;;;10.60;6.30;;;13.90;87.00;;;;;;5080834;28;20032;-67
2021/09/13 06:16:48;;;;;;;11.17;7.17;;;13.90;87.10;;;;;;5081661;28;20032;-67
2021/09/13 06:19:14;;;;;;;12.33;7.57;;;14.00;86.70;;;;;;5081966;28;20087;-67
2021/09/13 06:21:40;;;;;;;20.30;9.57;;;14.10;86.20;;;;;;5082254;28;20074;-67
2021/09/13 06:24:05;;;;;;;11.80;7.37;;;14.10;86.30;;;;;;5082353;28;20029;-67
2021/09/13 06:26:31;;;;;;;11.00;7.63;;;14.20;86.40;;;;;;5080456;28;20345;-67
2021/09/13 06:28:57;;;;;;;10.57;6.90;;;14.30;86.40;;;;;;5082817;28;20086;-68
2021/09/13 06:31:23;;;;;;;12.93;8.40;;;14.30;86.80;;;;;;5082002;28;20032;-67
2021/09/13 06:33:49;;;;;;;14.73;8.20;;;14.40;86.40;;;;;;5082145;28;20054;-66
2021/09/13 06:36:14;;;;;;;21.70;8.87;;;14.40;86.40;;;;;;5082646;28;20024;-67
2021/09/13 06:38:42;;;;;;;16.70;9.80;;;14.50;86.20;;;;;;5082612;28;20048;-67
2021/09/13 06:41:08;;;;;;;11.75;7.80;;;14.50;86.10;;;;;;5082541;28;20099;-67
2021/09/13 06:43:34;;;;;;;11.37;7.60;;;14.50;86.20;;;;;;5081772;28;20031;-67
2021/09/13 06:48:34;;;;;;;12.35;8.30;;;14.60;86.50;;;;;;5082599;28;20025;-67
2021/09/13 06:51:00;;;;;;;9.47;7.53;;;14.60;86.10;;;;;;5081155;28;20023;-67
2021/09/13 06:53:25;;;;;;;10.40;7.33;;;14.60;85.90;;;;;;5081307;28;20024;-67
2021/09/13 06:55:51;;;;;;;10.00;7.87;;;14.60;86.20;;;;;;5081807;28;20410;-67
2021/09/13 06:58:17;;;;;;;13.23;7.80;;;14.70;86.70;;;;;;5081034;28;20055;-66
2021/09/13 07:00:43;;;;;;;11.17;8.13;;;14.70;87.00;;;;;;5082376;28;20028;-67
2021/09/13 07:03:09;;;;;;;12.10;8.50;;;14.80;87.00;;;;;;5080720;28;20020;-67
2021/09/13 07:05:35;;;;;;;9.80;7.70;;;14.80;86.40;;;;;;5082163;28;20021;-67
2021/09/13 07:08:01;;;;;;;11.30;7.80;;;14.90;85.90;;;;;;5082202;28;20040;-67
2021/09/13 07:10:27;;;;;;;10.80;8.13;;;14.90;85.90;;;;;;5081108;28;20025;-67
2021/09/13 07:12:53;;;;;;;12.43;8.70;;;14.90;86.00;;;;;;5081956;28;20032;-67
2021/09/13 07:15:18;;;;;;;13.68;8.98;;;15.10;86.70;;;;;;5081669;28;20024;-67
2021/09/13 07:17:44;;;;;;;11.60;8.33;;;15.10;85.40;;;;;;5081332;28;20103;-67
2021/09/13 07:20:11;;;;;;;10.33;8.17;;;15.20;85.60;;;;;;5082071;28;20039;-67
2021/09/13 07:22:37;;;;;;;10.48;8.02;;;15.20;85.80;;;;;;5071921;28;20039;-67
2021/09/13 07:25:03;;;;;;;11.20;8.07;;;15.30;86.20;;;;;;5085411;28;20402;-67
2021/09/13 07:27:29;;;;;;;12.65;7.82;;;15.30;85.60;;;;;;5062911;28;20035;-67
2021/09/13 07:29:59;;;;;;;11.03;8.00;;;15.50;84.10;;;;;;5081811;28;20029;-68
2021/09/13 07:32:26;;;;;;;12.25;8.80;;;15.50;84.50;;;;;;5069935;28;20369;-67
2021/09/13 07:34:51;;;;;;;13.57;8.32;;;15.50;83.80;;;;;;5080301;28;20420;-67
2021/09/13 07:37:17;;;;;;;16.00;8.73;;;15.60;83.60;;;;;;5072172;28;20339;-67
2021/09/13 07:39:43;;;;;;;14.47;9.40;;;15.70;83.60;;;;;;5070639;28;20029;-68
2021/09/13 07:42:09;;;;;;;15.23;9.47;;;15.70;83.70;;;;;;5066835;28;20056;-67
2021/09/13 07:44:35;;;;;;;13.37;9.10;;;15.70;83.40;;;;;;5076743;28;20031;-67
2021/09/13 07:47:01;;;;;;;11.87;8.97;;;15.80;83.30;;;;;;5061458;28;20021;-67
2021/09/13 07:49:27;;;;;;;16.33;8.77;;;15.90;82.40;;;;;;5061611;28;20067;-67
2021/09/13 07:51:53;;;;;;;16.53;8.73;;;15.90;81.90;;;;;;5061601;28;20258;-67
2021/09/13 07:54:18;;;;;;;18.13;10.03;;;16.00;82.60;;;;;;5059747;28;20028;-67
2021/09/13 07:56:44;;;;;;;10.73;8.43;;;16.00;82.30;;;;;;5061281;28;20075;-67
2021/09/13 07:59:10;;;;;;;10.93;9.30;;;16.10;82.50;;;;;;5077000;28;20133;-68
2021/09/13 08:01:36;;;;;;;11.83;9.40;;;16.10;83.00;;;;;;5081411;28;20087;-68
2021/09/13 08:04:02;;;;;;;14.20;9.43;;;16.20;82.90;;;;;;5080680;28;20323;-67
2021/09/13 08:06:28;;;;;;;12.83;9.60;;;16.20;83.10;;;;;;5083153;28;20077;-67
2021/09/13 08:08:54;;;;;;;12.40;9.07;;;16.20;82.20;;;;;;5085498;28;20020;-68
2021/09/13 08:11:20;;;;;;;17.50;9.98;;;16.40;82.10;;;;;;5084411;28;20329;-68
2021/09/13 08:13:45;;;;;;;12.73;8.63;;;16.40;82.50;;;;;;5084741;28;20037;-67
2021/09/13 08:16:11;;;;;;;13.93;8.57;;;16.50;82.40;;;;;;5084069;28;20115;-67
2021/09/13 08:18:38;;;;;;;12.98;8.15;;;16.50;82.90;;;;;;5084933;28;20338;-67
2021/09/13 08:21:10;;;;;;;12.70;8.65;;;16.60;83.20;;;;;;5085011;28;20028;-67
2021/09/13 08:23:36;;;;;;;12.10;8.23;;;16.60;83.20;;;;;;5084398;28;20021;-68
2021/09/13 08:26:03;;;;;;;10.88;8.05;;;16.70;82.70;;;;;;5083686;28;20017;-67
2021/09/13 08:28:29;;;;;;;10.60;8.68;;;16.80;83.60;;;;;;5082637;28;20024;-68
2021/09/13 08:30:55;;;;;;;11.23;8.63;;;16.90;81.70;;;;;;5085054;28;20318;-68
2021/09/13 08:33:21;;;;;;;13.90;9.10;;;17.10;79.90;;;;;;5083421;28;20028;-66
2021/09/13 08:35:48;;;;;;;10.93;7.43;;;17.20;80.70;;;;;;5085036;28;20059;-67
2021/09/13 08:38:14;;;;;;;12.13;7.63;;;17.20;81.20;;;;;;5084936;28;20039;-67
2021/09/13 08:40:40;;;;;;;11.53;8.37;;;17.30;80.40;;;;;;5085003;28;20052;-67
2021/09/13 08:43:05;;;;;;;10.67;7.30;;;17.50;78.40;;;;;;5084302;28;20391;-68
2021/09/13 08:48:54;;;;;;;13.13;9.15;;;17.70;77.00;;;;;;5085224;28;20530;-67
2021/09/13 08:53:21;;;;;;;12.70;8.00;;;17.70;79.00;;;;;;5084871;28;20231;-67
2021/09/13 08:55:50;;;;;;;11.25;7.90;;;17.80;80.30;;;;;;5066931;28;20024;-68
2021/09/13 08:58:21;;;;;;;14.18;8.70;;;17.90;77.20;;;;;;5083666;28;20097;-67
2021/09/13 09:00:47;;;;;;;12.80;8.93;;;17.90;79.70;;;;;;5083733;28;20227;-67
2021/09/13 09:03:13;;;;;;;13.73;8.63;;;17.90;80.20;;;;;;5084295;28;20223;-68
2021/09/13 09:05:40;;;;;;;12.73;8.17;;;18.00;80.70;;;;;;5064760;28;20048;-67
2021/09/13 09:08:06;;;;;;;10.60;8.32;;;18.10;77.50;;;;;;5083519;28;20432;-68
2021/09/13 09:10:32;;;;;;;11.03;7.83;;;18.20;78.10;;;;;;5083524;28;20012;-68
2021/09/13 09:13:11;;;;;;;14.30;8.93;;;18.30;79.40;;;;;;5066545;28;20470;-67
2021/09/13 09:15:55;;;;;;;11.82;8.38;;;18.50;76.90;;;;;;5083118;28;20028;-67
2021/09/13 09:18:39;;;;;;;12.52;7.20;;;18.50;78.40;;;;;;5083184;28;20040;-67
2021/09/13 09:21:07;;;;;;;11.18;7.43;;;18.50;79.30;;;;;;5083675;28;20028;-68
2021/09/13 09:23:34;;;;;;;11.68;6.72;;;18.60;77.20;;;;;;5082532;28;20335;-67
2021/09/13 09:26:12;;;;;;;11.43;6.07;;;18.70;73.70;;;;;;5083274;28;20047;-68
2021/09/13 09:28:38;;;;;;;10.07;5.25;;;18.70;74.40;;;;;;5082706;28;20028;-67
2021/09/13 09:31:04;;;;;;;7.20;5.53;;;18.70;74.40;;;;;;5083925;28;20023;-68
2021/09/13 09:33:30;;;;;;;7.73;4.73;;;18.90;71.60;;;;;;5082900;28;20020;-68
2021/09/13 09:35:57;;;;;;;6.07;4.27;;;18.90;71.50;;;;;;5083620;28;20346;-67
2021/09/13 09:38:40;;;;;;;6.22;3.95;;;19.00;69.70;;;;;;5083601;28;20477;-66
2021/09/13 09:41:13;;;;;;;6.20;4.40;;;19.10;69.00;;;;;;5082836;28;20048;-67
2021/09/13 09:44:00;;;;;;;8.85;4.05;;;19.10;70.00;;;;;;5078557;28;20016;-70
2021/09/13 09:46:41;;;;;;;6.00;4.45;;;19.20;69.00;;;;;;5061934;28;20016;-69
2021/09/13 09:49:21;;;;;;;8.40;4.45;;;19.30;71.50;;;;;;5065985;28;20020;-69
2021/09/13 09:51:56;;;;;;;6.15;4.30;;;19.40;69.10;;;;;;5082042;28;20040;-70
2021/09/13 09:54:25;;;;;;;8.25;4.20;;;19.40;68.60;;;;;;5082922;28;20485;-71
2021/09/13 09:57:08;;;;;;;3.55;3.17;;;19.40;67.80;;;;;;5081674;28;20056;-72
2021/09/13 09:59:38;;;;;;;6.35;3.50;;;19.50;69.40;;;;;;5083187;28;20307;-71
2021/09/13 10:02:19;;;;;;;6.93;3.47;;;19.60;68.50;;;;;;5065390;28;20036;-71
2021/09/13 10:04:52;;;;;;;5.30;3.00;;;19.80;63.50;;;;;;5082459;28;20031;-68
2021/09/13 10:07:18;;;;;;;2.63;2.42;;;20.10;62.40;;;;;;5081974;28;20028;-68
2021/09/13 10:09:44;;;;;;;3.50;2.43;;;20.20;62.90;;;;;;5065073;28;20051;-68
2021/09/13 10:12:10;;;;;;;2.90;2.22;;;20.30;62.20;;;;;;5080370;28;20318;-67
2021/09/13 10:14:36;;;;;;;3.88;3.35;;;20.60;62.10;;;;;;5081812;28;20055;-67
2021/09/13 10:17:04;;;;;;;7.22;2.55;;;20.80;62.90;;;;;;5064157;28;20091;-68
2021/09/13 10:19:30;;;;;;;5.60;3.03;;;21.10;59.50;;;;;;5083026;28;20028;-68
2021/09/13 10:21:56;;;;;;;6.30;2.75;;;21.10;60.80;;;;;;5081453;28;20102;-66
2021/09/13 10:24:28;;;;;;;4.13;2.50;;;21.30;58.20;;;;;;5082321;28;20036;-68
2021/09/13 10:27:01;;;;;;;3.80;2.80;;;21.40;55.60;;;;;;5064003;28;20035;-67
2021/09/13 10:29:27;;;;;;;5.35;2.28;;;21.50;58.00;;;;;;5065376;28;20043;-68
2021/09/13 10:31:58;;;;;;;6.20;2.60;;;21.60;58.70;;;;;;5064847;28;20064;-68
2021/09/13 10:34:31;;;;;;;3.60;2.13;;;21.80;57.80;;;;;;5062399;28;20036;-67
2021/09/13 10:37:21;;;;;;;2.65;2.35;;;21.90;56.90;;;;;;5061521;28;20028;-69
2021/09/13 10:39:57;;;;;;;4.78;3.00;;;22.10;57.00;;;;;;5074306;28;20272;-68
2021/09/13 10:42:41;;;;;;;6.80;3.00;;;22.10;58.50;;;;;;5082399;28;20028;-68
2021/09/13 10:45:25;;;;;;;8.00;2.95;;;22.40;56.30;;;;;;5080947;28;20100;-68
2021/09/13 10:47:54;;;;;;;7.57;2.88;;;22.50;56.10;;;;;;5082225;28;20046;-68
2021/09/13 10:50:35;;;;;;;6.38;3.35;;;23.00;55.10;;;;;;5082516;28;20020;-68
2021/09/13 10:53:03;;;;;;;4.82;2.95;;;23.10;53.10;;;;;;5079026;28;20441;-68
2021/09/13 10:55:41;;;;;;;7.45;2.78;;;23.00;53.50;;;;;;5081001;28;20028;-69
2021/09/13 10:58:13;;;;;;;6.03;3.10;;;23.10;56.80;;;;;;5081176;28;20024;-68
2021/09/13 11:00:39;;;;;;;5.60;2.92;;;23.40;55.20;;;;;;5082019;28;20061;-69
2021/09/13 11:03:30;;;;;;;5.88;3.20;;;23.70;54.50;;;;;;5082007;28;20052;-68
2021/09/13 11:06:17;;;;;;;5.07;3.17;;;23.80;53.10;;;;;;5081889;28;20087;-69
2021/09/13 11:09:05;;;;;;;5.65;3.13;;;24.20;52.10;;;;;;5081642;28;20020;-68
2021/09/13 11:11:45;;;;;;;;;;;24.40;51.90;;;;;;5064873;28;20217;-69
2021/09/13 11:14:20;;;;;;;3.60;2.65;;;24.60;52.90;;;;;;5081951;28;20107;-68
2021/09/13 11:16:57;;;;;;;4.18;2.50;;;24.90;50.50;;;;;;5081010;28;20342;-69
2021/09/13 11:19:25;;;;;;;4.60;2.80;;;25.20;52.90;;;;;;5081155;28;20024;-69
2021/09/13 11:21:53;;;;;;;3.97;2.40;;;25.60;50.00;;;;;;5081811;28;20019;-69
2021/09/13 11:24:34;;;;;;;5.63;2.75;;;25.80;48.90;;;;;;5080868;28;20074;-68
2021/09/13 11:27:06;;;;;;;15.60;11.45;;;25.80;48.80;;;;;;5081396;28;20363;-79
2021/09/13 11:29:38;;;;;;;11.75;6.45;;;25.60;48.20;;;;;;5051873;28;20059;-70
2021/09/13 11:32:15;;;;;;;7.28;4.97;;;25.50;48.60;;;;;;5080529;28;20562;-72
2021/09/13 11:34:46;;;;;;;3.35;3.03;;;25.50;47.50;;;;;;5064086;28;20089;-73
2021/09/13 11:37:20;;;;;;;5.72;4.28;;;25.40;48.90;;;;;;5080534;28;20388;-71
2021/09/13 11:39:51;;;;;;;6.00;3.05;;;25.20;50.40;;;;;;5081237;28;20316;-71
2021/09/13 11:42:24;;;;;;;5.00;3.50;;;24.90;47.90;;;;;;5084687;28;20223;-75
2021/09/13 11:44:57;;;;;;;4.32;3.10;;;24.60;49.00;;;;;;5085112;28;20338;-78
2021/09/13 11:47:25;;;;;;;5.53;3.10;;;24.90;51.00;;;;;;5083895;28;20099;-68
2021/09/13 11:49:53;;;;;;;4.03;2.92;;;25.30;48.10;;;;;;5086218;28;20334;-68
2021/09/13 11:52:30;;;;;;;6.32;2.80;;;25.50;49.30;;;;;;5083945;28;20066;-68
2021/09/13 11:55:04;;;;;;;4.07;2.65;;;27.10;46.10;;;;;;5085564;28;20208;-68
2021/09/13 11:57:32;;;;;;;6.22;3.00;;;28.50;43.70;;;;;;5083467;28;20025;-65
2021/09/13 12:00:07;;;;;;;5.32;2.35;;;30.00;42.00;;;;;;5082214;28;20100;-66
2021/09/13 12:02:33;;;;;;;4.00;2.80;;;31.40;40.20;;;;;;5083705;28;20549;-65
2021/09/13 12:05:08;;;;;;;3.22;2.20;;;31.40;38.30;;;;;;5084649;28;20035;-66
2021/09/13 12:07:34;;;;;;;3.90;2.50;;;32.40;36.70;;;;;;5067825;28;20226;-67
2021/09/13 12:10:00;;;;;;;4.93;2.58;;;33.50;35.00;;;;;;5084939;28;20025;-66
2021/09/13 12:12:27;;;;;;;2.97;2.20;;;33.00;33.50;;;;;;5090103;28;20023;-66
2021/09/13 12:15:04;;;;;;;5.53;2.83;;;32.20;35.00;;;;;;5087052;28;20374;-66
2021/09/13 12:17:50;;;;;;;4.40;2.08;;;31.70;36.20;;;;;;5103328;28;20024;-66
2021/09/13 12:20:34;;;;;;;2.95;2.38;;;30.70;38.10;;;;;;5104100;28;20024;-66
2021/09/13 12:23:05;;;;;;;9.35;3.70;;;29.60;38.90;;;;;;5103133;28;20031;-67
2021/09/13 12:25:51;;;;;;;3.05;2.70;;;28.70;42.10;;;;;;5088186;28;20028;-67
2021/09/13 12:28:24;;;;;;;3.65;2.58;;;28.10;41.90;;;;;;5085064;28;20075;-67
2021/09/13 12:30:55;;;;;;;3.65;3.05;;;29.00;42.70;;;;;;5073806;28;20362;-67
2021/09/13 12:33:21;;;;;;;4.75;2.53;;;29.10;40.70;;;;;;5082323;28;20020;-67
2021/09/13 12:35:49;;;;;;;3.28;2.50;;;29.00;41.40;;;;;;5083426;28;20051;-67
2021/09/13 12:38:23;;;;;;;4.63;2.38;;;29.80;41.30;;;;;;5083014;28;20028;-67
2021/09/13 12:40:54;;;;;;;6.72;2.70;;;29.90;40.40;;;;;;5083431;28;20024;-69
2021/09/13 12:43:29;;;;;;;2.97;2.40;;;29.80;39.60;;;;;;5084542;28;20331;-66
2021/09/13 12:46:13;;;;;;;3.38;2.78;;;30.30;38.10;;;;;;5083283;28;20028;-69
2021/09/13 12:48:44;;;;;;;3.67;2.83;;;29.70;39.80;;;;;;5083705;28;20017;-67
2021/09/13 12:51:13;;;;;;;4.10;2.30;;;28.60;41.30;;;;;;5082619;28;20028;-66
2021/09/13 12:53:39;;;;;;;2.92;2.42;;;28.60;42.80;;;;;;5082948;28;20485;-67
2021/09/13 12:56:15;;;;;;;5.72;2.70;;;28.50;43.40;;;;;;5088362;28;20016;-66
2021/09/13 12:58:42;;;;;;;4.68;2.40;;;28.90;42.20;;;;;;5105241;28;20253;-66
2021/09/13 13:01:32;;;;;;;5.35;2.60;;;29.60;42.30;;;;;;5080679;28;20028;-67